sensor_id;sensor_type;location;lat;lon;timestamp;temperature;humidity
3300;DHT22;1662;49.310;8.134;2023-03-13T00:00:16;11.70;99.90
3300;DHT22;1662;49.310;8.134;2023-03-13T00:02:42;11.70;99.90
3300;DHT22;1662;49.310;8.134;2023-03-13T00:05:10;11.70;99.90
3300;DHT22;1662;49.310;8.134;2023-03-13T00:07:36;11.80;99.90
3300;DHT22;1662;49.310;8.134;2023-03-13T00:10:05;11.80;99.90
3300;DHT22;1662;49.310;8.134;2023-03-13T00:12:31;11.80;99.90
3300;DHT22;1662;49.310;8.134;2023-03-13T00:14:58;11.80;99.90
3300;DHT22;1662;49.310;8.134;2023-03-13T00:17:24;11.90;99.90
3300;DHT22;1662;49.310;8.134;2023-03-13T00:19:50;11.90;99.90
3300;DHT22;1662;49.310;8.134;2023-03-13T00:22:20;11.80;99.90
3300;DHT22;1662;49.310;8.134;2023-03-13T00:24:45;11.80;99.90
3300;DHT22;1662;49.310;8.134;2023-03-13T00:27:11;11.80;99.90
3300;DHT22;1662;49.310;8.134;2023-03-13T00:29:37;11.70;99.90
3300;DHT22;1662;49.310;8.134;2023-03-13T00:32:02;11.80;99.90
3300;DHT22;1662;49.310;8.134;2023-03-13T00:34:30;11.80;99.90
3300;DHT22;1662;49.310;8.134;2023-03-13T00:36:56;11.80;99.90
3300;DHT22;1662;49.310;8.134;2023-03-13T00:39:21;11.70;99.90
3300;DHT22;1662;49.310;8.134;2023-03-13T00:41:47;11.70;99.90
3300;DHT22;1662;49.310;8.134;2023-03-13T00:44:14;11.70;99.90
3300;DHT22;1662;49.310;8.134;2023-03-13T00:46:40;11.70;99.90
3300;DHT22;1662;49.310;8.134;2023-03-13T00:49:05;11.70;99.90
3300;DHT22;1662;49.310;8.134;2023-03-13T00:51:33;11.70;99.90
3300;DHT22;1662;49.310;8.134;2023-03-13T00:53:59;11.60;99.90
3300;DHT22;1662;49.310;8.134;2023-03-13T00:56:26;11.60;99.90
3300;DHT22;1662;49.310;8.134;2023-03-13T00:58:54;11.50;99.90
3300;DHT22;1662;49.310;8.134;2023-03-13T01:03:51;11.60;99.90
3300;DHT22;1662;49.310;8.134;2023-03-13T01:06:22;11.60;99.90
3300;DHT22;1662;49.310;8.134;2023-03-13T01:08:50;11.70;99.90
3300;DHT22;1662;49.310;8.134;2023-03-13T01:11:19;11.70;99.90
3300;DHT22;1662;49.310;8.134;2023-03-13T01:13:46;11.80;99.90
3300;DHT22;1662;49.310;8.134;2023-03-13T01:16:17;11.70;99.90
3300;DHT22;1662;49.310;8.134;2023-03-13T01:18:48;11.70;99.90
3300;DHT22;1662;49.310;8.134;2023-03-13T01:21:15;11.80;99.90
3300;DHT22;1662;49.310;8.134;2023-03-13T01:23:41;11.80;99.90
3300;DHT22;1662;49.310;8.134;2023-03-13T01:26:07;11.70;99.90
3300;DHT22;1662;49.310;8.134;2023-03-13T01:28:34;11.50;99.90
3300;DHT22;1662;49.310;8.134;2023-03-13T01:31:00;11.20;99.90
3300;DHT22;1662;49.310;8.134;2023-03-13T01:33:29;11.20;99.90
3300;DHT22;1662;49.310;8.134;2023-03-13T01:36:00;11.20;99.90
3300;DHT22;1662;49.310;8.134;2023-03-13T01:38:26;11.00;99.90
3300;DHT22;1662;49.310;8.134;2023-03-13T01:40:51;11.00;99.90
3300;DHT22;1662;49.310;8.134;2023-03-13T01:43:23;10.90;99.90
3300;DHT22;1662;49.310;8.134;2023-03-13T01:51:39;11.10;99.90
3300;DHT22;1662;49.310;8.134;2023-03-13T01:54:19;11.00;99.90
3300;DHT22;1662;49.310;8.134;2023-03-13T01:57:43;11.00;99.90
3300;DHT22;1662;49.310;8.134;2023-03-13T01:59:58;11.00;99.90
3300;DHT22;1662;49.310;8.134;2023-03-13T02:02:27;10.90;99.90
3300;DHT22;1662;49.310;8.134;2023-03-13T02:04:59;10.80;99.90
3300;DHT22;1662;49.310;8.134;2023-03-13T02:07:44;10.70;99.90
3300;DHT22;1662;49.310;8.134;2023-03-13T02:10:12;10.60;99.90
3300;DHT22;1662;49.310;8.134;2023-03-13T02:12:40;10.60;99.90
3300;DHT22;1662;49.310;8.134;2023-03-13T02:15:12;10.60;99.90
3300;DHT22;1662;49.310;8.134;2023-03-13T02:17:39;10.50;99.90
3300;DHT22;1662;49.310;8.134;2023-03-13T02:20:08;10.50;99.90
3300;DHT22;1662;49.310;8.134;2023-03-13T02:31:04;10.40;99.90
3300;DHT22;1662;49.310;8.134;2023-03-13T02:33:36;10.20;99.90
3300;DHT22;1662;49.310;8.134;2023-03-13T02:36:03;10.20;99.90
3300;DHT22;1662;49.310;8.134;2023-03-13T02:38:35;10.20;99.90
3300;DHT22;1662;49.310;8.134;2023-03-13T02:41:04;10.10;99.90
3300;DHT22;1662;49.310;8.134;2023-03-13T02:43:37;10.10;99.90
3300;DHT22;1662;49.310;8.134;2023-03-13T02:48:40;10.50;99.90
3300;DHT22;1662;49.310;8.134;2023-03-13T02:53:58;10.80;99.90
3300;DHT22;1662;49.310;8.134;2023-03-13T02:56:26;10.80;99.90
3300;DHT22;1662;49.310;8.134;2023-03-13T02:58:52;10.70;99.90
3300;DHT22;1662;49.310;8.134;2023-03-13T03:01:17;10.60;99.90
3300;DHT22;1662;49.310;8.134;2023-03-13T03:03:43;10.50;99.90
3300;DHT22;1662;49.310;8.134;2023-03-13T03:06:09;10.20;99.90
3300;DHT22;1662;49.310;8.134;2023-03-13T03:08:34;10.10;99.90
3300;DHT22;1662;49.310;8.134;2023-03-13T03:11:00;9.90;99.90
3300;DHT22;1662;49.310;8.134;2023-03-13T03:13:26;9.80;99.90
3300;DHT22;1662;49.310;8.134;2023-03-13T03:15:52;9.70;99.90
3300;DHT22;1662;49.310;8.134;2023-03-13T03:18:18;9.60;99.90
3300;DHT22;1662;49.310;8.134;2023-03-13T03:20:45;9.50;99.90
3300;DHT22;1662;49.310;8.134;2023-03-13T03:23:11;9.40;99.90
3300;DHT22;1662;49.310;8.134;2023-03-13T03:25:37;9.40;99.90
3300;DHT22;1662;49.310;8.134;2023-03-13T03:28:02;9.40;99.90
3300;DHT22;1662;49.310;8.134;2023-03-13T03:30:28;9.40;99.90
3300;DHT22;1662;49.310;8.134;2023-03-13T03:32:53;9.40;99.90
3300;DHT22;1662;49.310;8.134;2023-03-13T03:35:21;9.40;99.90
3300;DHT22;1662;49.310;8.134;2023-03-13T03:37:47;9.40;99.90
3300;DHT22;1662;49.310;8.134;2023-03-13T03:40:12;9.50;99.90
3300;DHT22;1662;49.310;8.134;2023-03-13T03:42:38;9.40;99.90
3300;DHT22;1662;49.310;8.134;2023-03-13T03:45:04;9.30;99.90
3300;DHT22;1662;49.310;8.134;2023-03-13T03:47:30;9.30;99.90
3300;DHT22;1662;49.310;8.134;2023-03-13T03:49:55;9.40;99.90
3300;DHT22;1662;49.310;8.134;2023-03-13T03:52:21;9.30;99.90
3300;DHT22;1662;49.310;8.134;2023-03-13T03:54:46;9.20;99.90
3300;DHT22;1662;49.310;8.134;2023-03-13T03:57:12;9.20;99.90
3300;DHT22;1662;49.310;8.134;2023-03-13T03:59:37;9.30;99.90
3300;DHT22;1662;49.310;8.134;2023-03-13T04:02:03;9.20;99.90
3300;DHT22;1662;49.310;8.134;2023-03-13T04:04:28;9.20;99.90
3300;DHT22;1662;49.310;8.134;2023-03-13T04:06:54;9.20;99.90
3300;DHT22;1662;49.310;8.134;2023-03-13T04:09:20;9.30;99.90
3300;DHT22;1662;49.310;8.134;2023-03-13T04:11:45;9.30;99.90
3300;DHT22;1662;49.310;8.134;2023-03-13T04:14:11;9.30;99.90
3300;DHT22;1662;49.310;8.134;2023-03-13T04:16:36;9.30;99.90
3300;DHT22;1662;49.310;8.134;2023-03-13T04:19:02;9.30;99.90
3300;DHT22;1662;49.310;8.134;2023-03-13T04:21:28;9.40;99.90
3300;DHT22;1662;49.310;8.134;2023-03-13T04:23:53;9.30;99.90
3300;DHT22;1662;49.310;8.134;2023-03-13T04:26:19;9.40;99.90
3300;DHT22;1662;49.310;8.134;2023-03-13T04:28:45;9.50;99.90
3300;DHT22;1662;49.310;8.134;2023-03-13T04:31:10;9.70;99.90
3300;DHT22;1662;49.310;8.134;2023-03-13T04:33:36;9.90;99.90
3300;DHT22;1662;49.310;8.134;2023-03-13T04:36:02;10.10;99.90
3300;DHT22;1662;49.310;8.134;2023-03-13T04:38:27;10.40;99.90
3300;DHT22;1662;49.310;8.134;2023-03-13T04:40:53;10.50;99.90
3300;DHT22;1662;49.310;8.134;2023-03-13T04:43:21;10.60;99.90
3300;DHT22;1662;49.310;8.134;2023-03-13T04:45:47;10.80;99.90
3300;DHT22;1662;49.310;8.134;2023-03-13T04:48:14;10.80;99.90
3300;DHT22;1662;49.310;8.134;2023-03-13T04:50:40;10.90;99.90
3300;DHT22;1662;49.310;8.134;2023-03-13T04:53:05;10.90;99.90
3300;DHT22;1662;49.310;8.134;2023-03-13T04:55:31;11.00;99.90
3300;DHT22;1662;49.310;8.134;2023-03-13T04:57:56;11.10;99.90
3300;DHT22;1662;49.310;8.134;2023-03-13T05:00:22;11.10;99.90
3300;DHT22;1662;49.310;8.134;2023-03-13T05:02:48;11.10;99.90
3300;DHT22;1662;49.310;8.134;2023-03-13T05:05:13;11.30;99.90
3300;DHT22;1662;49.310;8.134;2023-03-13T05:07:39;11.30;99.90
3300;DHT22;1662;49.310;8.134;2023-03-13T05:10:05;11.30;99.90
3300;DHT22;1662;49.310;8.134;2023-03-13T05:12:30;11.30;99.90
3300;DHT22;1662;49.310;8.134;2023-03-13T05:14:56;11.30;99.90
3300;DHT22;1662;49.310;8.134;2023-03-13T05:17:21;11.40;99.90
3300;DHT22;1662;49.310;8.134;2023-03-13T05:19:47;11.50;99.90
3300;DHT22;1662;49.310;8.134;2023-03-13T05:22:13;11.40;99.90
3300;DHT22;1662;49.310;8.134;2023-03-13T05:24:41;11.50;99.90
3300;DHT22;1662;49.310;8.134;2023-03-13T05:27:06;11.40;99.90
3300;DHT22;1662;49.310;8.134;2023-03-13T05:29:32;11.50;99.90
3300;DHT22;1662;49.310;8.134;2023-03-13T05:31:57;11.50;99.90
3300;DHT22;1662;49.310;8.134;2023-03-13T05:34:23;11.60;99.90
3300;DHT22;1662;49.310;8.134;2023-03-13T05:36:49;11.60;99.90
3300;DHT22;1662;49.310;8.134;2023-03-13T05:39:14;11.60;99.90
3300;DHT22;1662;49.310;8.134;2023-03-13T05:41:40;11.60;99.90
3300;DHT22;1662;49.310;8.134;2023-03-13T05:44:05;11.50;99.90
3300;DHT22;1662;49.310;8.134;2023-03-13T05:46:31;11.60;99.90
3300;DHT22;1662;49.310;8.134;2023-03-13T05:49:00;11.50;99.90
3300;DHT22;1662;49.310;8.134;2023-03-13T05:51:26;11.60;99.90
3300;DHT22;1662;49.310;8.134;2023-03-13T05:53:51;11.70;99.90
3300;DHT22;1662;49.310;8.134;2023-03-13T05:56:17;11.70;99.90
3300;DHT22;1662;49.310;8.134;2023-03-13T05:58:42;11.70;99.90
3300;DHT22;1662;49.310;8.134;2023-03-13T06:01:09;11.70;99.90
3300;DHT22;1662;49.310;8.134;2023-03-13T06:03:36;11.80;99.90
3300;DHT22;1662;49.310;8.134;2023-03-13T06:06:01;11.80;99.90
3300;DHT22;1662;49.310;8.134;2023-03-13T06:08:28;11.80;99.90
3300;DHT22;1662;49.310;8.134;2023-03-13T06:10:56;11.80;99.90
3300;DHT22;1662;49.310;8.134;2023-03-13T06:13:22;11.90;99.90
3300;DHT22;1662;49.310;8.134;2023-03-13T06:15:52;11.90;99.90
3300;DHT22;1662;49.310;8.134;2023-03-13T06:18:18;11.80;99.90
3300;DHT22;1662;49.310;8.134;2023-03-13T06:20:44;11.80;99.90
3300;DHT22;1662;49.310;8.134;2023-03-13T06:23:09;11.90;99.90
3300;DHT22;1662;49.310;8.134;2023-03-13T06:25:35;11.90;99.90
3300;DHT22;1662;49.310;8.134;2023-03-13T06:28:01;12.00;99.90
3300;DHT22;1662;49.310;8.134;2023-03-13T06:30:26;12.00;99.90
3300;DHT22;1662;49.310;8.134;2023-03-13T06:32:52;12.10;99.90
3300;DHT22;1662;49.310;8.134;2023-03-13T06:35:18;12.10;99.90
3300;DHT22;1662;49.310;8.134;2023-03-13T06:37:43;12.10;99.90
3300;DHT22;1662;49.310;8.134;2023-03-13T06:40:10;12.10;99.90
3300;DHT22;1662;49.310;8.134;2023-03-13T06:42:35;12.00;99.90
3300;DHT22;1662;49.310;8.134;2023-03-13T06:45:01;12.00;99.90
3300;DHT22;1662;49.310;8.134;2023-03-13T06:47:30;12.10;99.90
3300;DHT22;1662;49.310;8.134;2023-03-13T06:49:57;12.10;99.90
3300;DHT22;1662;49.310;8.134;2023-03-13T06:52:27;12.20;99.90
3300;DHT22;1662;49.310;8.134;2023-03-13T06:54:53;12.10;99.90
3300;DHT22;1662;49.310;8.134;2023-03-13T06:57:19;12.10;99.90
3300;DHT22;1662;49.310;8.134;2023-03-13T06:59:44;12.20;99.90
3300;DHT22;1662;49.310;8.134;2023-03-13T07:02:14;12.20;99.90
3300;DHT22;1662;49.310;8.134;2023-03-13T07:04:40;12.20;99.90
3300;DHT22;1662;49.310;8.134;2023-03-13T07:07:05;12.30;99.90
3300;DHT22;1662;49.310;8.134;2023-03-13T07:09:31;12.30;99.90
3300;DHT22;1662;49.310;8.134;2023-03-13T07:11:57;12.30;99.90
3300;DHT22;1662;49.310;8.134;2023-03-13T07:14:23;12.30;99.90
3300;DHT22;1662;49.310;8.134;2023-03-13T07:16:48;12.30;99.90
3300;DHT22;1662;49.310;8.134;2023-03-13T07:19:16;12.40;99.90
3300;DHT22;1662;49.310;8.134;2023-03-13T07:21:42;12.40;99.90
3300;DHT22;1662;49.310;8.134;2023-03-13T07:24:08;12.40;99.90
3300;DHT22;1662;49.310;8.134;2023-03-13T07:26:34;12.40;99.90
3300;DHT22;1662;49.310;8.134;2023-03-13T07:29:02;12.50;99.90
3300;DHT22;1662;49.310;8.134;2023-03-13T07:31:28;12.50;99.90
3300;DHT22;1662;49.310;8.134;2023-03-13T07:33:58;12.50;99.90
3300;DHT22;1662;49.310;8.134;2023-03-13T07:36:24;12.50;99.90
3300;DHT22;1662;49.310;8.134;2023-03-13T07:38:50;12.50;99.90
3300;DHT22;1662;49.310;8.134;2023-03-13T07:41:16;12.50;99.90
3300;DHT22;1662;49.310;8.134;2023-03-13T07:43:43;12.60;99.90
3300;DHT22;1662;49.310;8.134;2023-03-13T07:46:14;12.70;99.90
3300;DHT22;1662;49.310;8.134;2023-03-13T07:48:43;12.60;99.90
3300;DHT22;1662;49.310;8.134;2023-03-13T07:53:39;12.50;99.90
3300;DHT22;1662;49.310;8.134;2023-03-13T07:56:07;12.50;99.90
3300;DHT22;1662;49.310;8.134;2023-03-13T07:58:36;12.60;99.90
3300;DHT22;1662;49.310;8.134;2023-03-13T08:03:34;12.70;99.90
3300;DHT22;1662;49.310;8.134;2023-03-13T08:06:03;12.70;99.90
3300;DHT22;1662;49.310;8.134;2023-03-13T08:08:29;12.70;99.90
3300;DHT22;1662;49.310;8.134;2023-03-13T08:11:02;12.70;99.90
3300;DHT22;1662;49.310;8.134;2023-03-13T08:13:28;12.80;99.90
3300;DHT22;1662;49.310;8.134;2023-03-13T08:16:04;12.80;99.90
3300;DHT22;1662;49.310;8.134;2023-03-13T08:18:30;12.80;99.90
3300;DHT22;1662;49.310;8.134;2023-03-13T08:21:07;12.80;99.90
3300;DHT22;1662;49.310;8.134;2023-03-13T08:23:36;12.80;99.90
3300;DHT22;1662;49.310;8.134;2023-03-13T08:26:13;12.80;99.90
3300;DHT22;1662;49.310;8.134;2023-03-13T08:28:42;12.80;99.90
3300;DHT22;1662;49.310;8.134;2023-03-13T08:31:29;12.70;99.90
3300;DHT22;1662;49.310;8.134;2023-03-13T08:33:55;12.70;99.90
3300;DHT22;1662;49.310;8.134;2023-03-13T08:36:22;12.80;99.90
3300;DHT22;1662;49.310;8.134;2023-03-13T08:38:50;12.80;99.90
3300;DHT22;1662;49.310;8.134;2023-03-13T08:41:22;12.80;99.90
3300;DHT22;1662;49.310;8.134;2023-03-13T08:43:50;12.80;99.90
3300;DHT22;1662;49.310;8.134;2023-03-13T08:46:18;12.80;99.90
3300;DHT22;1662;49.310;8.134;2023-03-13T08:48:44;12.80;99.90
3300;DHT22;1662;49.310;8.134;2023-03-13T08:51:13;12.80;99.90
3300;DHT22;1662;49.310;8.134;2023-03-13T08:53:41;12.90;99.90
3300;DHT22;1662;49.310;8.134;2023-03-13T08:56:09;12.90;99.90
3300;DHT22;1662;49.310;8.134;2023-03-13T08:58:38;12.90;99.90
3300;DHT22;1662;49.310;8.134;2023-03-13T09:01:05;12.90;99.90
3300;DHT22;1662;49.310;8.134;2023-03-13T09:03:31;13.00;99.90
3300;DHT22;1662;49.310;8.134;2023-03-13T09:05:58;13.00;99.90
3300;DHT22;1662;49.310;8.134;2023-03-13T09:08:28;13.10;99.90
3300;DHT22;1662;49.310;8.134;2023-03-13T09:10:59;13.20;99.90
3300;DHT22;1662;49.310;8.134;2023-03-13T09:13:26;13.40;99.90
3300;DHT22;1662;49.310;8.134;2023-03-13T09:15:59;13.50;99.90
3300;DHT22;1662;49.310;8.134;2023-03-13T09:18:26;13.50;99.90
3300;DHT22;1662;49.310;8.134;2023-03-13T09:20:52;13.50;99.90
3300;DHT22;1662;49.310;8.134;2023-03-13T09:23:18;13.50;99.90
3300;DHT22;1662;49.310;8.134;2023-03-13T09:25:44;13.60;99.90
3300;DHT22;1662;49.310;8.134;2023-03-13T09:28:10;13.70;99.90
3300;DHT22;1662;49.310;8.134;2023-03-13T09:30:35;13.80;99.90
3300;DHT22;1662;49.310;8.134;2023-03-13T09:33:01;13.80;99.90
3300;DHT22;1662;49.310;8.134;2023-03-13T09:35:29;13.80;99.90
3300;DHT22;1662;49.310;8.134;2023-03-13T09:37:55;13.80;99.90
3300;DHT22;1662;49.310;8.134;2023-03-13T09:40:22;13.90;99.90
3300;DHT22;1662;49.310;8.134;2023-03-13T09:42:51;13.90;99.90
3300;DHT22;1662;49.310;8.134;2023-03-13T09:45:28;13.80;99.90
3300;DHT22;1662;49.310;8.134;2023-03-13T09:48:05;13.90;99.90
3300;DHT22;1662;49.310;8.134;2023-03-13T09:50:41;13.90;99.90
3300;DHT22;1662;49.310;8.134;2023-03-13T09:53:20;14.00;99.90
3300;DHT22;1662;49.310;8.134;2023-03-13T09:55:51;14.00;99.90
3300;DHT22;1662;49.310;8.134;2023-03-13T09:58:22;13.90;99.90
3300;DHT22;1662;49.310;8.134;2023-03-13T10:01:05;14.00;99.90
3300;DHT22;1662;49.310;8.134;2023-03-13T10:03:37;14.00;99.90
3300;DHT22;1662;49.310;8.134;2023-03-13T10:06:13;14.30;99.90
3300;DHT22;1662;49.310;8.134;2023-03-13T10:08:40;14.40;99.90
3300;DHT22;1662;49.310;8.134;2023-03-13T10:11:28;14.50;99.90
3300;DHT22;1662;49.310;8.134;2023-03-13T10:16:53;14.80;99.90
3300;DHT22;1662;49.310;8.134;2023-03-13T10:19:30;14.80;99.90
3300;DHT22;1662;49.310;8.134;2023-03-13T10:21:57;14.80;99.90
3300;DHT22;1662;49.310;8.134;2023-03-13T10:24:36;14.80;99.90
3300;DHT22;1662;49.310;8.134;2023-03-13T10:27:08;15.00;99.90
3300;DHT22;1662;49.310;8.134;2023-03-13T10:29:33;15.10;99.90
3300;DHT22;1662;49.310;8.134;2023-03-13T10:32:01;15.20;99.90
3300;DHT22;1662;49.310;8.134;2023-03-13T10:34:32;15.20;99.90
3300;DHT22;1662;49.310;8.134;2023-03-13T10:37:13;15.20;99.90
3300;DHT22;1662;49.310;8.134;2023-03-13T10:39:38;15.40;99.90
3300;DHT22;1662;49.310;8.134;2023-03-13T10:42:20;15.50;99.90
3300;DHT22;1662;49.310;8.134;2023-03-13T10:44:46;15.70;99.90
3300;DHT22;1662;49.310;8.134;2023-03-13T10:47:13;16.00;99.90
3300;DHT22;1662;49.310;8.134;2023-03-13T10:49:50;16.20;99.90
3300;DHT22;1662;49.310;8.134;2023-03-13T10:52:44;16.40;99.90
3300;DHT22;1662;49.310;8.134;2023-03-13T10:55:12;16.70;99.90
3300;DHT22;1662;49.310;8.134;2023-03-13T10:57:40;16.90;99.90
3300;DHT22;1662;49.310;8.134;2023-03-13T11:00:34;17.10;99.90
3300;DHT22;1662;49.310;8.134;2023-03-13T11:03:05;17.30;99.90
3300;DHT22;1662;49.310;8.134;2023-03-13T11:05:40;17.50;99.90
3300;DHT22;1662;49.310;8.134;2023-03-13T11:08:35;17.60;99.90
3300;DHT22;1662;49.310;8.134;2023-03-13T11:11:14;17.60;99.90
3300;DHT22;1662;49.310;8.134;2023-03-13T11:13:43;17.60;99.90
3300;DHT22;1662;49.310;8.134;2023-03-13T11:24:10;18.00;99.90
3300;DHT22;1662;49.310;8.134;2023-03-13T11:26:53;18.00;99.90
3300;DHT22;1662;49.310;8.134;2023-03-13T11:32:21;18.20;99.90
3300;DHT22;1662;49.310;8.134;2023-03-13T11:35:01;18.40;99.90
3300;DHT22;1662;49.310;8.134;2023-03-13T11:37:32;18.60;99.90
3300;DHT22;1662;49.310;8.134;2023-03-13T11:40:20;18.70;99.90
3300;DHT22;1662;49.310;8.134;2023-03-13T11:43:20;18.70;99.90
3300;DHT22;1662;49.310;8.134;2023-03-13T11:46:07;18.80;99.90
3300;DHT22;1662;49.310;8.134;2023-03-13T11:49:11;18.90;99.90
3300;DHT22;1662;49.310;8.134;2023-03-13T12:00:33;19.40;99.90
3300;DHT22;1662;49.310;8.134;2023-03-13T12:03:24;19.70;99.90
3300;DHT22;1662;49.310;8.134;2023-03-13T12:05:54;19.80;99.90
3300;DHT22;1662;49.310;8.134;2023-03-13T12:13:43;20.00;99.90
3300;DHT22;1662;49.310;8.134;2023-03-13T12:16:15;20.10;99.90
3300;DHT22;1662;49.310;8.134;2023-03-13T12:18:43;20.10;99.90
3300;DHT22;1662;49.310;8.134;2023-03-13T12:22:17;20.00;99.90
3300;DHT22;1662;49.310;8.134;2023-03-13T12:37:52;19.10;99.90
3300;DHT22;1662;49.310;8.134;2023-03-13T12:42:56;18.90;99.90
3300;DHT22;1662;49.310;8.134;2023-03-13T12:45:24;18.90;99.90
3300;DHT22;1662;49.310;8.134;2023-03-13T12:47:58;18.90;99.90
3300;DHT22;1662;49.310;8.134;2023-03-13T12:58:46;18.90;99.90
3300;DHT22;1662;49.310;8.134;2023-03-13T13:01:29;19.00;99.90
3300;DHT22;1662;49.310;8.134;2023-03-13T13:04:13;19.00;99.90
3300;DHT22;1662;49.310;8.134;2023-03-13T13:07:04;19.10;99.90
3300;DHT22;1662;49.310;8.134;2023-03-13T13:09:36;19.10;99.90
3300;DHT22;1662;49.310;8.134;2023-03-13T13:12:24;19.40;99.90
3300;DHT22;1662;49.310;8.134;2023-03-13T13:17:53;20.00;99.90
3300;DHT22;1662;49.310;8.134;2023-03-13T13:20:34;20.20;99.90
3300;DHT22;1662;49.310;8.134;2023-03-13T13:25:44;20.20;99.90
3300;DHT22;1662;49.310;8.134;2023-03-13T13:30:38;20.20;99.90
3300;DHT22;1662;49.310;8.134;2023-03-13T13:38:38;20.20;99.90
3300;DHT22;1662;49.310;8.134;2023-03-13T13:48:39;20.20;99.90
3300;DHT22;1662;49.310;8.134;2023-03-13T13:53:50;20.70;99.90
3300;DHT22;1662;49.310;8.134;2023-03-13T14:02:14;21.40;99.90
3300;DHT22;1662;49.310;8.134;2023-03-13T14:12:46;22.20;99.90
3300;DHT22;1662;49.310;8.134;2023-03-13T14:15:13;22.10;99.90
3300;DHT22;1662;49.310;8.134;2023-03-13T14:17:41;22.10;99.90
3300;DHT22;1662;49.310;8.134;2023-03-13T14:20:21;22.10;99.90
3300;DHT22;1662;49.310;8.134;2023-03-13T14:22:49;22.20;99.90
3300;DHT22;1662;49.310;8.134;2023-03-13T14:25:15;22.20;99.90
3300;DHT22;1662;49.310;8.134;2023-03-13T14:27:45;22.20;99.90
3300;DHT22;1662;49.310;8.134;2023-03-13T14:30:13;22.30;99.90
3300;DHT22;1662;49.310;8.134;2023-03-13T14:35:06;22.70;99.90
3300;DHT22;1662;49.310;8.134;2023-03-13T14:37:43;22.50;99.90
3300;DHT22;1662;49.310;8.134;2023-03-13T14:40:27;22.70;99.90
3300;DHT22;1662;49.310;8.134;2023-03-13T14:43:03;22.90;99.90
3300;DHT22;1662;49.310;8.134;2023-03-13T14:45:30;23.10;99.90
3300;DHT22;1662;49.310;8.134;2023-03-13T14:48:02;23.30;99.90
3300;DHT22;1662;49.310;8.134;2023-03-13T14:50:30;23.20;99.90
3300;DHT22;1662;49.310;8.134;2023-03-13T14:53:08;23.20;99.90
3300;DHT22;1662;49.310;8.134;2023-03-13T14:55:35;23.30;99.90
3300;DHT22;1662;49.310;8.134;2023-03-13T15:00:47;23.50;99.90
3300;DHT22;1662;49.310;8.134;2023-03-13T15:08:41;23.50;99.90
3300;DHT22;1662;49.310;8.134;2023-03-13T15:11:25;23.60;99.90
3300;DHT22;1662;49.310;8.134;2023-03-13T15:13:51;23.70;99.90
3300;DHT22;1662;49.310;8.134;2023-03-13T15:16:19;23.80;99.90
3300;DHT22;1662;49.310;8.134;2023-03-13T15:18:47;23.60;99.90
3300;DHT22;1662;49.310;8.134;2023-03-13T15:23:49;23.10;99.90
3300;DHT22;1662;49.310;8.134;2023-03-13T15:26:15;22.80;99.90
3300;DHT22;1662;49.310;8.134;2023-03-13T15:28:41;22.40;99.90
3300;DHT22;1662;49.310;8.134;2023-03-13T15:31:10;22.30;99.90
3300;DHT22;1662;49.310;8.134;2023-03-13T15:33:41;22.20;99.90
3300;DHT22;1662;49.310;8.134;2023-03-13T15:36:08;22.10;99.90
3300;DHT22;1662;49.310;8.134;2023-03-13T15:38:34;22.00;99.90
3300;DHT22;1662;49.310;8.134;2023-03-13T15:40:59;21.90;99.90
3300;DHT22;1662;49.310;8.134;2023-03-13T15:43:25;21.60;99.90
3300;DHT22;1662;49.310;8.134;2023-03-13T15:45:51;21.50;99.90
3300;DHT22;1662;49.310;8.134;2023-03-13T15:50:48;21.30;99.90
3300;DHT22;1662;49.310;8.134;2023-03-13T15:53:33;21.30;99.90
3300;DHT22;1662;49.310;8.134;2023-03-13T15:56:01;21.20;99.90
3300;DHT22;1662;49.310;8.134;2023-03-13T15:58:28;21.20;99.90
3300;DHT22;1662;49.310;8.134;2023-03-13T16:00:57;21.00;99.90
3300;DHT22;1662;49.310;8.134;2023-03-13T16:03:27;21.00;99.90
3300;DHT22;1662;49.310;8.134;2023-03-13T16:05:54;20.90;99.90
3300;DHT22;1662;49.310;8.134;2023-03-13T16:08:23;20.80;99.90
3300;DHT22;1662;49.310;8.134;2023-03-13T16:10:49;20.70;99.90
3300;DHT22;1662;49.310;8.134;2023-03-13T16:13:15;20.00;99.90
3300;DHT22;1662;49.310;8.134;2023-03-13T16:15:41;19.70;99.90
3300;DHT22;1662;49.310;8.134;2023-03-13T16:18:15;19.20;99.90
3300;DHT22;1662;49.310;8.134;2023-03-13T16:20:41;18.80;99.90
3300;DHT22;1662;49.310;8.134;2023-03-13T16:23:07;18.50;99.90
3300;DHT22;1662;49.310;8.134;2023-03-13T16:25:32;18.40;99.90
3300;DHT22;1662;49.310;8.134;2023-03-13T16:27:58;18.10;99.90
3300;DHT22;1662;49.310;8.134;2023-03-13T16:30:28;17.90;99.90
3300;DHT22;1662;49.310;8.134;2023-03-13T16:32:55;17.70;99.90
3300;DHT22;1662;49.310;8.134;2023-03-13T16:35:21;17.60;99.90
3300;DHT22;1662;49.310;8.134;2023-03-13T16:37:47;17.50;99.90
3300;DHT22;1662;49.310;8.134;2023-03-13T16:40:15;17.30;99.90
3300;DHT22;1662;49.310;8.134;2023-03-13T16:42:41;16.80;99.90
3300;DHT22;1662;49.310;8.134;2023-03-13T16:45:07;16.50;99.90
3300;DHT22;1662;49.310;8.134;2023-03-13T16:47:33;16.20;99.90
3300;DHT22;1662;49.310;8.134;2023-03-13T16:50:00;16.10;99.90
3300;DHT22;1662;49.310;8.134;2023-03-13T16:52:26;16.10;99.90
3300;DHT22;1662;49.310;8.134;2023-03-13T16:54:52;15.80;99.90
3300;DHT22;1662;49.310;8.134;2023-03-13T16:57:22;15.60;99.90
3300;DHT22;1662;49.310;8.134;2023-03-13T16:59:48;15.50;99.90
3300;DHT22;1662;49.310;8.134;2023-03-13T17:02:19;15.30;99.90
3300;DHT22;1662;49.310;8.134;2023-03-13T17:04:45;15.20;99.90
3300;DHT22;1662;49.310;8.134;2023-03-13T17:07:22;15.30;99.90
3300;DHT22;1662;49.310;8.134;2023-03-13T17:09:50;15.30;99.90
3300;DHT22;1662;49.310;8.134;2023-03-13T17:12:16;15.30;99.90
3300;DHT22;1662;49.310;8.134;2023-03-13T17:14:45;15.20;99.90
3300;DHT22;1662;49.310;8.134;2023-03-13T17:17:17;15.00;99.90
3300;DHT22;1662;49.310;8.134;2023-03-13T17:19:44;14.90;99.90
3300;DHT22;1662;49.310;8.134;2023-03-13T17:22:14;14.80;99.90
3300;DHT22;1662;49.310;8.134;2023-03-13T17:24:43;14.70;99.90
3300;DHT22;1662;49.310;8.134;2023-03-13T17:27:13;14.80;99.90
3300;DHT22;1662;49.310;8.134;2023-03-13T17:29:39;14.70;99.90
3300;DHT22;1662;49.310;8.134;2023-03-13T17:32:05;14.70;99.90
3300;DHT22;1662;49.310;8.134;2023-03-13T17:34:34;14.60;99.90
3300;DHT22;1662;49.310;8.134;2023-03-13T17:36:59;14.50;99.90
3300;DHT22;1662;49.310;8.134;2023-03-13T17:39:29;14.60;99.90
3300;DHT22;1662;49.310;8.134;2023-03-13T17:41:54;14.60;99.90
3300;DHT22;1662;49.310;8.134;2023-03-13T17:44:22;14.60;99.90
3300;DHT22;1662;49.310;8.134;2023-03-13T17:46:47;14.60;99.90
3300;DHT22;1662;49.310;8.134;2023-03-13T17:49:15;14.70;99.90
3300;DHT22;1662;49.310;8.134;2023-03-13T17:51:44;14.90;99.90
3300;DHT22;1662;49.310;8.134;2023-03-13T17:54:10;15.00;99.90
3300;DHT22;1662;49.310;8.134;2023-03-13T17:56:38;14.90;99.90
3300;DHT22;1662;49.310;8.134;2023-03-13T17:59:13;15.00;99.90
3300;DHT22;1662;49.310;8.134;2023-03-13T18:01:39;14.80;99.90
3300;DHT22;1662;49.310;8.134;2023-03-13T18:04:05;14.80;99.90
3300;DHT22;1662;49.310;8.134;2023-03-13T18:06:42;14.60;99.90
3300;DHT22;1662;49.310;8.134;2023-03-13T18:09:17;14.60;99.90
3300;DHT22;1662;49.310;8.134;2023-03-13T18:11:43;14.60;99.90
3300;DHT22;1662;49.310;8.134;2023-03-13T18:14:09;14.50;99.90
3300;DHT22;1662;49.310;8.134;2023-03-13T18:16:41;14.40;99.90
3300;DHT22;1662;49.310;8.134;2023-03-13T18:19:23;14.40;99.90
3300;DHT22;1662;49.310;8.134;2023-03-13T18:21:51;14.20;99.90
3300;DHT22;1662;49.310;8.134;2023-03-13T18:24:19;14.10;99.90
3300;DHT22;1662;49.310;8.134;2023-03-13T18:26:45;14.10;99.90